createdAt,value
2023-05-08T00:01:52.652Z,63.42
2023-05-08T00:04:19.223Z,63.67
2023-05-08T00:06:45.661Z,64.11
2023-05-08T00:09:11.996Z,64.55
2023-05-08T00:11:38.338Z,65.25
2023-05-08T00:14:04.693Z,64.50
2023-05-08T00:16:31.100Z,64.99
2023-05-08T00:18:57.472Z,64.08
2023-05-08T00:21:23.818Z,64.66
2023-05-08T00:23:50.177Z,64.56
2023-05-08T00:26:16.493Z,64.89
2023-05-08T00:28:42.954Z,64.53
2023-05-08T00:31:09.331Z,64.03
2023-05-08T00:33:35.655Z,64.16
2023-05-08T00:36:02.137Z,63.48
2023-05-08T00:38:28.468Z,63.63
2023-05-08T00:40:54.859Z,63.88
2023-05-08T00:43:21.225Z,63.41
2023-05-08T00:45:47.679Z,64.08
2023-05-08T00:48:14.100Z,64.08
2023-05-08T00:50:40.479Z,63.81
2023-05-08T00:53:06.841Z,64.50
2023-05-08T00:55:33.161Z,64.57
2023-05-08T00:57:59.488Z,64.43
2023-05-08T01:00:25.846Z,64.96
2023-05-08T01:02:52.274Z,64.58
2023-05-08T01:05:18.667Z,64.64
2023-05-08T01:07:45.024Z,64.08
2023-05-08T01:10:11.627Z,65.20
2023-05-08T01:12:38.141Z,65.28
2023-05-08T01:15:04.566Z,65.29
2023-05-08T01:17:31.048Z,65.20
2023-05-08T01:19:57.460Z,64.98
2023-05-08T01:22:23.794Z,65.62
2023-05-08T01:24:50.115Z,66.14
2023-05-08T01:27:16.457Z,65.45
2023-05-08T01:29:42.844Z,65.46
2023-05-08T01:32:09.186Z,65.43
2023-05-08T01:34:35.517Z,65.39
2023-05-08T01:37:01.933Z,65.73
2023-05-08T01:39:28.351Z,65.67
2023-05-08T01:41:54.687Z,65.72
2023-05-08T01:44:21.082Z,66.68
2023-05-08T01:46:47.441Z,66.67
2023-05-08T01:49:13.778Z,66.35
2023-05-08T01:51:40.108Z,66.63
2023-05-08T01:54:08.626Z,66.89
2023-05-08T01:56:36.355Z,66.79
2023-05-08T01:59:02.699Z,66.08
2023-05-08T02:01:29.053Z,65.44
2023-05-08T02:03:55.533Z,65.12
2023-05-08T02:06:21.897Z,65.55
2023-05-08T02:08:48.240Z,65.08
2023-05-08T02:11:14.650Z,65.34
2023-05-08T02:13:41.027Z,65.73
2023-05-08T02:16:07.352Z,64.89
2023-05-08T02:18:33.739Z,65.88
2023-05-08T02:21:00.070Z,65.86
2023-05-08T02:23:26.491Z,66.21
2023-05-08T02:25:52.837Z,66.93
2023-05-08T02:28:19.177Z,66.59
2023-05-08T02:30:45.529Z,66.33
2023-05-08T02:33:11.921Z,66.64
2023-05-08T02:35:38.326Z,66.59
2023-05-08T02:38:04.718Z,67.06
2023-05-08T02:40:31.039Z,66.43
2023-05-08T02:42:57.364Z,66.28
2023-05-08T02:45:23.737Z,65.86
2023-05-08T02:47:50.260Z,65.60
2023-05-08T02:50:16.615Z,66.09
2023-05-08T02:52:43.011Z,66.09
2023-05-08T02:55:09.575Z,66.75
2023-05-08T02:57:35.930Z,67.09
2023-05-08T03:00:02.301Z,66.90
2023-05-08T03:02:28.856Z,66.46
2023-05-08T03:04:55.385Z,65.89
2023-05-08T03:07:21.711Z,65.71
2023-05-08T03:09:48.131Z,66.15
2023-05-08T03:12:14.494Z,66.49
2023-05-08T03:14:40.845Z,66.21
2023-05-08T03:17:07.176Z,66.76
2023-05-08T03:19:33.507Z,67.11
2023-05-08T03:21:59.828Z,66.84
2023-05-08T03:24:26.173Z,66.86
2023-05-08T03:26:52.526Z,66.67
2023-05-08T03:29:18.894Z,67.14
2023-05-08T03:31:45.275Z,67.39
2023-05-08T03:34:11.637Z,67.29
2023-05-08T03:36:37.987Z,67.62
2023-05-08T03:39:04.316Z,68.21
2023-05-08T03:41:30.703Z,67.02
2023-05-08T03:43:57.052Z,66.28
2023-05-08T03:46:23.533Z,65.80
2023-05-08T03:48:49.940Z,66.22
2023-05-08T03:51:16.256Z,66.39
2023-05-08T03:53:42.636Z,65.93
2023-05-08T03:56:09.021Z,66.23
2023-05-08T03:58:35.429Z,65.44
2023-05-08T04:01:01.779Z,65.93
2023-05-08T04:03:28.257Z,66.09
2023-05-08T04:05:54.778Z,66.81
2023-05-08T04:08:21.113Z,66.23
2023-05-08T04:10:47.469Z,66.03
2023-05-08T04:13:13.853Z,65.53
2023-05-08T04:15:40.544Z,65.07
2023-05-08T04:18:06.958Z,65.34
2023-05-08T04:20:33.415Z,65.53
2023-05-08T04:22:59.792Z,66.40
2023-05-08T04:25:26.141Z,65.92
2023-05-08T04:27:52.487Z,65.63
2023-05-08T04:30:18.860Z,66.19
2023-05-08T04:32:46.667Z,66.75
2023-05-08T04:35:13.724Z,66.64
2023-05-08T04:37:40.340Z,66.22
2023-05-08T04:40:06.677Z,66.63
2023-05-08T04:42:33.016Z,66.18
2023-05-08T04:44:59.381Z,66.53
2023-05-08T04:47:25.799Z,67.16
2023-05-08T04:49:52.205Z,67.45
2023-05-08T04:52:18.611Z,67.26
2023-05-08T04:54:44.980Z,67.75
2023-05-08T04:57:11.399Z,67.89
2023-05-08T04:59:37.752Z,67.68
2023-05-08T05:02:04.171Z,67.78
2023-05-08T05:04:30.529Z,68.34
2023-05-08T05:06:56.935Z,67.96
2023-05-08T05:09:23.321Z,68.35
2023-05-08T05:11:49.659Z,68.16
2023-05-08T05:14:16.023Z,67.99
2023-05-08T05:16:42.460Z,68.06
2023-05-08T05:19:08.914Z,67.67
2023-05-08T05:21:35.260Z,67.29
2023-05-08T05:24:01.596Z,67.42
2023-05-08T05:26:28.016Z,68.31
2023-05-08T05:28:54.385Z,67.76
2023-05-08T05:31:20.725Z,68.75
2023-05-08T05:33:47.099Z,68.56
2023-05-08T05:36:13.459Z,68.73
2023-05-08T05:38:39.828Z,68.22
2023-05-08T05:41:06.168Z,68.73
2023-05-08T05:43:32.518Z,68.16
2023-05-08T05:45:58.856Z,68.48
2023-05-08T05:48:25.263Z,68.49
2023-05-08T05:50:51.709Z,68.20
2023-05-08T05:53:18.082Z,67.94
2023-05-08T05:55:44.419Z,68.10
2023-05-08T05:58:10.759Z,68.66
2023-05-08T06:00:37.088Z,68.10
2023-05-08T06:03:03.500Z,68.19
2023-05-08T06:05:29.928Z,68.69
2023-05-08T06:07:56.230Z,68.42
2023-05-08T06:10:22.546Z,68.60
2023-05-08T06:12:48.957Z,69.00
2023-05-08T06:15:15.452Z,69.04
2023-05-08T06:17:42.021Z,69.57
2023-05-08T06:20:08.413Z,69.24
2023-05-08T06:22:34.761Z,69.44
2023-05-08T06:25:01.109Z,69.42
2023-05-08T06:27:27.481Z,69.78
2023-05-08T06:29:53.841Z,69.43
2023-05-08T06:32:20.192Z,69.74
2023-05-08T06:34:46.575Z,69.32
2023-05-08T06:37:12.913Z,69.08
2023-05-08T06:39:39.291Z,68.66
2023-05-08T06:42:05.634Z,68.62
2023-05-08T06:44:34.864Z,68.95
2023-05-08T06:47:01.200Z,69.21
2023-05-08T06:49:27.553Z,69.76
2023-05-08T06:51:55.484Z,69.61
2023-05-08T06:54:23.615Z,69.98
2023-05-08T06:56:49.972Z,69.45
2023-05-08T06:59:16.356Z,69.86
2023-05-08T07:01:42.711Z,69.80
2023-05-08T07:04:09.087Z,69.18
2023-05-08T07:06:35.453Z,69.60
2023-05-08T07:09:04.918Z,69.47
2023-05-08T07:11:32.352Z,69.75
2023-05-08T07:13:58.688Z,69.20
2023-05-08T07:16:25.054Z,69.04
2023-05-08T07:18:51.387Z,69.51
2023-05-08T07:21:17.774Z,68.62
2023-05-08T07:23:44.140Z,67.11
2023-05-08T07:26:10.473Z,66.47
2023-05-08T07:28:36.827Z,65.63
2023-05-08T07:31:03.206Z,65.88
2023-05-08T07:33:29.622Z,65.80
2023-05-08T07:35:55.972Z,66.50
2023-05-08T07:38:22.310Z,65.92
2023-05-08T07:40:48.627Z,66.05
2023-05-08T07:43:15.016Z,66.26
2023-05-08T07:45:41.373Z,66.98
2023-05-08T07:48:07.739Z,66.85
2023-05-08T07:50:34.090Z,66.74
2023-05-08T07:53:00.415Z,66.65
2023-05-08T07:55:26.760Z,66.67
2023-05-08T07:57:53.121Z,66.59
2023-05-08T08:00:19.468Z,66.82
2023-05-08T08:02:45.964Z,67.42
2023-05-08T08:05:12.727Z,66.12
2023-05-08T08:07:39.415Z,66.17
2023-05-08T08:10:05.775Z,66.42
2023-05-08T08:12:32.150Z,66.76
2023-05-08T08:14:58.502Z,66.32
2023-05-08T08:17:26.898Z,66.52
2023-05-08T08:19:55.006Z,66.72
2023-05-08T08:22:21.375Z,66.10
2023-05-08T08:24:47.713Z,66.13
2023-05-08T08:27:14.029Z,65.69
2023-05-08T08:29:40.435Z,65.64
2023-05-08T08:32:06.783Z,65.49
2023-05-08T08:34:33.104Z,65.33
2023-05-08T08:36:59.449Z,64.75
2023-05-08T08:39:25.792Z,64.25
2023-05-08T08:41:52.129Z,64.57
2023-05-08T08:44:18.481Z,64.04
2023-05-08T08:46:44.927Z,64.79
2023-05-08T08:49:11.364Z,65.48
2023-05-08T08:51:37.728Z,65.38
2023-05-08T08:54:04.054Z,65.15
2023-05-08T08:56:30.365Z,65.35
2023-05-08T08:58:56.674Z,65.86
2023-05-08T09:01:23.065Z,65.54
2023-05-08T09:03:49.997Z,64.94
2023-05-08T09:06:16.534Z,64.03
2023-05-08T09:08:42.864Z,63.58
2023-05-08T09:11:09.192Z,63.84
2023-05-08T09:13:35.685Z,64.53
2023-05-08T09:16:02.314Z,64.67
2023-05-08T09:18:28.700Z,64.98
2023-05-08T09:20:55.034Z,65.31
2023-05-08T09:23:21.351Z,65.73
2023-05-08T09:25:47.724Z,65.90
2023-05-08T09:28:14.046Z,65.67
2023-05-08T09:30:40.406Z,65.31
2023-05-08T09:33:06.788Z,64.98
2023-05-08T09:35:33.152Z,65.55
2023-05-08T09:37:59.469Z,66.00
2023-05-08T09:40:25.810Z,65.22
2023-05-08T09:42:52.180Z,64.34
2023-05-08T09:45:18.503Z,64.55
2023-05-08T09:47:44.870Z,64.02
2023-05-08T09:50:11.293Z,63.98
2023-05-08T09:52:37.686Z,63.60
2023-05-08T09:55:04.045Z,63.45
2023-05-08T09:57:30.388Z,63.15
2023-05-08T09:59:56.697Z,62.79
2023-05-08T10:02:23.103Z,62.52
2023-05-08T10:04:49.493Z,62.53
2023-05-08T10:07:15.870Z,61.96
2023-05-08T10:09:50.319Z,62.10
2023-05-08T10:12:17.221Z,61.83
2023-05-08T10:14:46.371Z,62.47
2023-05-08T10:17:13.244Z,63.10
2023-05-08T10:19:39.646Z,63.64
2023-05-08T10:22:05.981Z,63.54
2023-05-08T10:24:32.348Z,63.48
2023-05-08T10:27:06.779Z,64.42
2023-05-08T10:29:34.049Z,65.29
2023-05-08T10:32:00.396Z,65.64
2023-05-08T10:34:26.743Z,64.28
2023-05-08T10:36:54.164Z,64.97
2023-05-08T10:39:20.632Z,64.81
2023-05-08T10:41:47.063Z,63.86
2023-05-08T10:44:13.448Z,63.93
2023-05-08T10:46:39.820Z,64.73
2023-05-08T10:49:06.224Z,65.70
2023-05-08T10:51:32.584Z,66.98
2023-05-08T10:53:58.937Z,67.28
2023-05-08T10:56:25.277Z,66.30
2023-05-08T10:58:54.474Z,66.20
2023-05-08T11:01:20.834Z,65.99
2023-05-08T11:03:47.320Z,65.97
2023-05-08T11:06:13.741Z,66.78
2023-05-08T11:08:40.086Z,66.80
2023-05-08T11:11:06.438Z,66.65
2023-05-08T11:13:32.841Z,66.72
2023-05-08T11:15:59.233Z,66.65
2023-05-08T11:18:28.062Z,66.08
2023-05-08T11:20:59.073Z,66.14
2023-05-08T11:23:25.436Z,66.76
2023-05-08T11:25:51.765Z,66.16
2023-05-08T11:28:18.096Z,65.46
2023-05-08T11:30:44.487Z,64.89
2023-05-08T11:33:10.804Z,64.51
2023-05-08T11:35:37.144Z,63.56
2023-05-08T11:38:03.494Z,63.72
2023-05-08T11:40:29.827Z,62.61
2023-05-08T11:42:56.144Z,60.00
2023-05-08T11:45:22.489Z,58.36
2023-05-08T11:47:48.853Z,59.18
2023-05-08T11:50:15.403Z,58.02
2023-05-08T11:52:41.934Z,57.75
2023-05-08T11:55:08.329Z,57.77
2023-05-08T11:57:34.683Z,57.90
2023-05-08T12:00:01.030Z,57.02
2023-05-08T12:02:27.507Z,56.12
2023-05-08T12:04:53.974Z,54.71
2023-05-08T12:07:20.666Z,54.06
2023-05-08T12:09:47.043Z,55.86
2023-05-08T12:12:13.414Z,56.99
2023-05-08T12:14:39.764Z,57.73
2023-05-08T12:17:06.175Z,57.53
2023-05-08T12:19:32.547Z,55.59
2023-05-08T12:21:58.903Z,56.29
2023-05-08T12:24:25.233Z,56.50
2023-05-08T12:26:51.580Z,55.59
2023-05-08T12:29:17.965Z,53.66
2023-05-08T12:31:44.382Z,53.89
2023-05-08T12:34:10.736Z,54.76
2023-05-08T12:36:37.076Z,54.64
2023-05-08T12:39:03.425Z,56.53
2023-05-08T12:41:29.759Z,55.96
2023-05-08T12:43:56.093Z,55.73
2023-05-08T12:46:22.464Z,55.74
2023-05-08T12:48:48.823Z,55.38
2023-05-08T12:51:15.152Z,54.58
2023-05-08T12:53:41.486Z,54.81
2023-05-08T12:56:07.842Z,53.25
2023-05-08T12:58:34.176Z,53.43
2023-05-08T13:01:00.656Z,52.94
2023-05-08T13:03:27.167Z,51.06
2023-05-08T13:05:53.567Z,50.39
2023-05-08T13:08:19.898Z,50.52
2023-05-08T13:10:46.284Z,49.94
2023-05-08T13:13:12.655Z,50.91
2023-05-08T13:15:38.992Z,51.76
2023-05-08T13:18:05.385Z,56.53
2023-05-08T13:20:31.738Z,57.43
2023-05-08T13:22:58.068Z,57.61
2023-05-08T13:25:24.412Z,56.50
2023-05-08T13:27:50.814Z,57.97
2023-05-08T13:30:17.166Z,58.19
2023-05-08T13:32:43.536Z,57.71
2023-05-08T13:35:09.883Z,55.36
2023-05-08T13:37:36.204Z,52.78
2023-05-08T13:40:02.566Z,53.24
2023-05-08T13:42:28.904Z,51.23
2023-05-08T13:44:55.296Z,51.97
2023-05-08T13:47:21.656Z,52.36
2023-05-08T13:49:48.042Z,53.45
2023-05-08T13:52:14.389Z,54.37
2023-05-08T13:54:40.714Z,54.09
2023-05-08T13:57:07.028Z,51.47
2023-05-08T13:59:33.358Z,53.13
2023-05-08T14:01:59.738Z,52.31
2023-05-08T14:04:26.150Z,50.82
2023-05-08T14:06:52.519Z,52.66
2023-05-08T14:09:18.850Z,53.25
2023-05-08T14:11:45.167Z,52.66
2023-05-08T14:14:11.473Z,49.93
2023-05-08T14:16:37.863Z,49.30
2023-05-08T14:19:04.270Z,48.82
2023-05-08T14:21:30.599Z,49.10
2023-05-08T14:23:56.960Z,48.64
2023-05-08T14:26:23.285Z,49.60
2023-05-08T14:28:49.651Z,48.77
2023-05-08T14:31:16.091Z,49.69
2023-05-08T14:33:42.494Z,51.27
2023-05-08T14:36:08.831Z,51.11
2023-05-08T14:38:35.173Z,50.22
2023-05-08T14:41:04.257Z,50.13
2023-05-08T14:43:31.231Z,49.85
2023-05-08T14:45:57.563Z,50.42
2023-05-08T14:48:23.919Z,51.42
2023-05-08T14:50:50.261Z,53.74
2023-05-08T14:53:16.791Z,51.99
2023-05-08T14:55:43.622Z,52.93
2023-05-08T14:58:10.236Z,53.91
2023-05-08T15:00:36.585Z,53.27
2023-05-08T15:03:03.028Z,51.20
2023-05-08T15:05:29.425Z,52.01
2023-05-08T15:07:55.755Z,52.46
2023-05-08T15:10:22.151Z,51.27
2023-05-08T15:12:48.642Z,51.60
2023-05-08T15:15:15.218Z,53.40
2023-05-08T15:17:41.735Z,52.64
2023-05-08T15:20:08.134Z,49.30
2023-05-08T15:22:34.498Z,49.37
2023-05-08T15:25:00.835Z,49.39
2023-05-08T15:27:27.230Z,49.48
2023-05-08T15:29:53.559Z,49.74
2023-05-08T15:32:19.929Z,49.87
2023-05-08T15:34:46.312Z,47.43
2023-05-08T15:37:12.683Z,48.12
2023-05-08T15:39:38.990Z,48.02
2023-05-08T15:42:05.342Z,46.70
2023-05-08T15:44:53.346Z,48.87
2023-05-08T15:47:18.021Z,47.09
2023-05-08T15:49:44.341Z,45.05
2023-05-08T15:52:10.715Z,44.68
2023-05-08T15:54:37.044Z,43.19
2023-05-08T15:57:03.377Z,41.24
2023-05-08T15:59:29.697Z,38.75
2023-05-08T16:01:56.041Z,35.81
2023-05-08T16:04:22.408Z,32.68
2023-05-08T16:06:48.758Z,32.65
2023-05-08T16:09:15.104Z,32.05
2023-05-08T16:11:41.463Z,31.69
2023-05-08T16:14:07.803Z,29.97
2023-05-08T16:16:34.191Z,31.37
2023-05-08T16:19:00.576Z,33.47
2023-05-08T16:21:26.915Z,34.84
2023-05-08T16:23:53.240Z,38.57
2023-05-08T16:26:19.599Z,40.02
2023-05-08T16:28:45.920Z,41.24
2023-05-08T16:31:12.283Z,40.50
2023-05-08T16:33:38.669Z,42.01
2023-05-08T16:36:05.049Z,42.95
2023-05-08T16:38:31.488Z,41.15
2023-05-08T16:40:57.805Z,41.31
2023-05-08T16:43:24.135Z,40.59
2023-05-08T16:45:50.545Z,41.10
2023-05-08T16:48:16.894Z,42.67
2023-05-08T16:50:43.249Z,43.36
2023-05-08T16:53:09.655Z,43.24
2023-05-08T16:55:36.026Z,44.17
2023-05-08T16:58:02.529Z,45.82
2023-05-08T17:00:28.862Z,46.29
2023-05-08T17:02:55.288Z,47.42
2023-05-08T17:05:21.649Z,46.67
2023-05-08T17:07:47.985Z,46.82
2023-05-08T17:10:14.311Z,47.80
2023-05-08T17:12:40.659Z,47.62
2023-05-08T17:15:07.014Z,46.47
2023-05-08T17:17:33.398Z,46.04
2023-05-08T17:19:59.801Z,45.74
2023-05-08T17:22:26.216Z,45.98
2023-05-08T17:24:52.567Z,45.75
2023-05-08T17:27:19.017Z,44.90
2023-05-08T17:29:45.440Z,44.65
2023-05-08T17:32:11.835Z,44.99
2023-05-08T17:34:38.241Z,48.38
2023-05-08T17:37:04.637Z,51.39
2023-05-08T17:39:30.971Z,52.55
2023-05-08T17:41:57.313Z,52.62
2023-05-08T17:44:23.635Z,52.81
2023-05-08T17:46:50.118Z,51.34
2023-05-08T17:49:17.858Z,51.50
2023-05-08T17:51:45.714Z,53.62
2023-05-08T17:54:12.074Z,53.79
2023-05-08T17:56:38.469Z,53.55
2023-05-08T17:59:04.797Z,52.72
2023-05-08T18:01:31.280Z,53.62
2023-05-08T18:03:57.663Z,54.06
2023-05-08T18:06:24.036Z,54.49
2023-05-08T18:08:50.408Z,54.64
2023-05-08T18:11:16.743Z,55.11
2023-05-08T18:13:43.109Z,55.47
2023-05-08T18:16:09.581Z,55.75
2023-05-08T18:18:35.982Z,55.87
2023-05-08T18:21:02.311Z,55.91
2023-05-08T18:23:28.646Z,56.18
2023-05-08T18:25:55.018Z,56.37
2023-05-08T18:28:21.380Z,56.50
2023-05-08T18:30:47.726Z,56.47
2023-05-08T18:33:14.135Z,56.37
2023-05-08T18:35:40.532Z,56.52
2023-05-08T18:38:06.911Z,56.51
2023-05-08T18:40:33.256Z,56.22
2023-05-08T18:42:59.596Z,56.20
2023-05-08T18:45:25.931Z,56.50
2023-05-08T18:47:52.332Z,56.06
2023-05-08T18:50:18.702Z,56.21
2023-05-08T18:52:45.075Z,56.02
2023-05-08T18:55:11.449Z,55.77
2023-05-08T18:57:37.801Z,55.91
2023-05-08T19:00:04.156Z,55.36
2023-05-08T19:02:30.533Z,55.24
2023-05-08T19:04:56.908Z,55.69
2023-05-08T19:07:23.296Z,55.38
2023-05-08T19:09:49.817Z,55.91
2023-05-08T19:12:16.185Z,55.83
2023-05-08T19:14:42.615Z,55.72
2023-05-08T19:17:08.969Z,55.54
2023-05-08T19:19:35.317Z,55.63
2023-05-08T19:22:01.648Z,55.93
2023-05-08T19:24:27.991Z,55.62
2023-05-08T19:26:54.342Z,56.14
2023-05-08T19:29:20.698Z,55.56
2023-05-08T19:31:47.148Z,56.01
2023-05-08T19:34:13.553Z,55.49
2023-05-08T19:36:39.899Z,55.21
2023-05-08T19:39:06.352Z,55.01
2023-05-08T19:41:32.678Z,55.33
2023-05-08T19:43:59.039Z,55.04
2023-05-08T19:46:25.528Z,55.22
2023-05-08T19:48:51.926Z,55.20
2023-05-08T19:51:19.515Z,55.40
2023-05-08T19:53:45.877Z,55.06
2023-05-08T19:56:12.216Z,54.85
2023-05-08T19:58:38.583Z,54.79
2023-05-08T20:01:04.995Z,54.82
2023-05-08T20:03:34.551Z,54.73
2023-05-08T20:06:00.988Z,55.10
2023-05-08T20:08:27.330Z,54.76
2023-05-08T20:10:53.654Z,54.74
2023-05-08T20:13:20.134Z,55.23
2023-05-08T20:15:46.568Z,55.24
2023-05-08T20:18:12.914Z,55.08
2023-05-08T20:20:39.259Z,55.12
2023-05-08T20:23:05.589Z,55.16
2023-05-08T20:25:31.955Z,55.52
2023-05-08T20:27:58.318Z,55.59
2023-05-08T20:30:24.722Z,55.77
2023-05-08T20:32:51.157Z,56.08
2023-05-08T20:35:17.584Z,56.10
2023-05-08T20:37:43.957Z,55.92
2023-05-08T20:40:10.292Z,56.29
2023-05-08T20:42:36.619Z,56.13
2023-05-08T20:45:02.990Z,56.21
2023-05-08T20:47:29.500Z,56.25
2023-05-08T20:49:55.858Z,56.23
2023-05-08T20:52:22.247Z,56.68
2023-05-08T20:54:48.879Z,56.74
2023-05-08T20:57:15.261Z,56.90
2023-05-08T20:59:41.660Z,56.79
2023-05-08T21:02:08.040Z,56.41
2023-05-08T21:04:34.461Z,56.67
2023-05-08T21:07:00.847Z,56.76
2023-05-08T21:09:27.255Z,56.84
2023-05-08T21:11:53.601Z,56.84
2023-05-08T21:14:20.015Z,56.75
2023-05-08T21:16:46.384Z,56.75
2023-05-08T21:19:12.786Z,56.93
2023-05-08T21:21:39.137Z,56.65
2023-05-08T21:24:05.468Z,56.68
2023-05-08T21:26:31.812Z,56.39
2023-05-08T21:28:58.146Z,56.01
2023-05-08T21:31:24.644Z,55.88
2023-05-08T21:33:51.188Z,55.77
2023-05-08T21:36:17.515Z,55.98
2023-05-08T21:38:43.832Z,55.90
2023-05-08T21:41:10.202Z,55.85
2023-05-08T21:43:36.564Z,56.03
2023-05-08T21:46:03.012Z,56.50
2023-05-08T21:48:29.373Z,56.63
2023-05-08T21:50:55.762Z,56.04
2023-05-08T21:53:22.106Z,56.09
2023-05-08T21:55:48.438Z,55.78
2023-05-08T21:58:14.766Z,55.69
2023-05-08T22:00:41.112Z,56.06
2023-05-08T22:03:07.480Z,56.02
2023-05-08T22:05:33.889Z,56.02
2023-05-08T22:08:00.216Z,55.46
2023-05-08T22:10:26.557Z,56.13
2023-05-08T22:12:53.103Z,56.23
2023-05-08T22:15:29.799Z,56.39
2023-05-08T22:17:57.196Z,56.11
2023-05-08T22:20:23.565Z,56.07
2023-05-08T22:22:49.917Z,55.77
2023-05-08T22:25:16.306Z,55.79
2023-05-08T22:27:42.774Z,55.45
2023-05-08T22:30:09.112Z,55.42
2023-05-08T22:32:35.498Z,55.54
2023-05-08T22:35:01.853Z,55.79
2023-05-08T22:37:28.222Z,55.76
2023-05-08T22:39:54.572Z,55.66
2023-05-08T22:42:20.878Z,56.01
2023-05-08T22:44:47.235Z,56.09
2023-05-08T22:47:13.892Z,56.37
2023-05-08T22:49:40.247Z,56.83
2023-05-08T22:52:06.592Z,56.55
2023-05-08T22:54:32.969Z,56.51
2023-05-08T22:56:59.314Z,56.46
2023-05-08T22:59:25.677Z,56.65
2023-05-08T23:01:51.997Z,56.64
2023-05-08T23:04:18.342Z,56.53
2023-05-08T23:06:44.711Z,56.78
2023-05-08T23:09:11.047Z,57.17
2023-05-08T23:11:37.417Z,56.67
2023-05-08T23:14:03.734Z,56.42
2023-05-08T23:16:30.078Z,56.31
2023-05-08T23:18:56.472Z,56.63
2023-05-08T23:21:22.795Z,56.91
2023-05-08T23:23:49.288Z,56.92
2023-05-08T23:26:15.681Z,56.92
2023-05-08T23:28:41.997Z,56.96
2023-05-08T23:31:08.380Z,57.70
2023-05-08T23:33:34.762Z,57.65
2023-05-08T23:36:01.093Z,57.85
2023-05-08T23:38:27.442Z,57.72
2023-05-08T23:40:53.788Z,57.75
2023-05-08T23:43:20.086Z,57.32
2023-05-08T23:45:46.398Z,57.18
2023-05-08T23:48:12.768Z,57.45
2023-05-08T23:50:39.113Z,57.30
2023-05-08T23:53:05.442Z,57.07
2023-05-08T23:55:31.769Z,57.47
2023-05-08T23:57:58.096Z,57.61
